CheckWX is a tool to help pilots better visualize weather data.  It is not intended as a substitute for an official pre-flight weather briefing.

11:05:12 UTC

KLRF METAR
Little Rock AFB Airport
Jacksonville, Arkansas, USA
Current

9 mins ago

KLRF 241056Z AUTO 00000KT 10SM CLR 19/19 A3007 RMK AO2 SLP183 T01890189 $
Observed
May-24 @ 10:56 UTC
Visibility
10 SM
Flight Rules
VFR
Cloud Levels
  • Clear skies
Temperature
19°C / 66°F
Dewpoint
19°C / 66°F
Humidity
100%
Altimeter
30.07" Hg
Pressure
1018.32 hPa
Previous

1 hour ago

KLRF 240956Z AUTO 00000KT 10SM CLR 19/19 A3005 RMK AO2 SLP176 T01910191 $
Observed
May-24 @ 09:56 UTC
Visibility
10 SM
Flight Rules
VFR
Cloud Levels
  • Clear skies
Temperature
19°C / 66°F
Dewpoint
19°C / 66°F
Humidity
100%
Altimeter
30.05" Hg
Pressure
1017.62 hPa
Previous

2 hours ago

KLRF 240856Z AUTO 00000KT 10SM CLR 20/20 A3004 RMK AO2 SLP172 T01950195 $
Observed
May-24 @ 08:56 UTC
Visibility
10 SM
Flight Rules
VFR
Cloud Levels
  • Clear skies
Temperature
20°C / 68°F
Dewpoint
20°C / 68°F
Humidity
100%
Altimeter
30.04" Hg
Pressure
1017.32 hPa